createdAt,value
2022-08-26T00:01:56.315Z,23.18
2022-08-26T00:04:25.178Z,23.19
2022-08-26T00:06:55.874Z,23.09
2022-08-26T00:09:24.941Z,23.17
2022-08-26T00:11:54.242Z,23.13
2022-08-26T00:14:27.041Z,23.09
2022-08-26T00:16:56.943Z,23.06
2022-08-26T00:19:24.839Z,23.06
2022-08-26T00:21:52.346Z,23.01
2022-08-26T00:24:21.842Z,22.99
2022-08-26T00:26:49.683Z,23.01
2022-08-26T00:29:17.870Z,22.80
2022-08-26T00:31:45.750Z,22.71
2022-08-26T00:34:14.272Z,22.59
2022-08-26T00:36:43.608Z,22.88
2022-08-26T00:39:14.124Z,22.54
2022-08-26T00:41:41.817Z,22.49
2022-08-26T00:44:11.074Z,22.47
2022-08-26T00:46:46.819Z,22.44
2022-08-26T00:49:22.073Z,22.41
2022-08-26T00:51:54.232Z,22.41
2022-08-26T00:54:27.022Z,22.41
2022-08-26T00:57:16.025Z,22.42
2022-08-26T00:59:49.560Z,22.44
2022-08-26T01:02:21.327Z,22.51
2022-08-26T01:04:56.527Z,22.43
2022-08-26T01:07:30.158Z,22.51
2022-08-26T01:10:01.439Z,22.46
2022-08-26T01:12:34.246Z,22.45
2022-08-26T01:15:03.188Z,22.50
2022-08-26T01:17:33.257Z,22.52
2022-08-26T01:20:24.981Z,22.32
2022-08-26T01:22:58.730Z,21.52
2022-08-26T01:25:33.293Z,21.92
2022-08-26T01:28:05.748Z,22.01
2022-08-26T01:30:35.491Z,22.12
2022-08-26T01:33:08.363Z,22.02
2022-08-26T01:35:37.537Z,22.40
2022-08-26T01:38:06.136Z,22.35
2022-08-26T01:40:38.022Z,22.15
2022-08-26T01:43:08.697Z,21.99
2022-08-26T01:45:41.613Z,21.84
2022-08-26T01:48:16.311Z,21.92
2022-08-26T01:50:46.149Z,22.04
2022-08-26T01:53:16.803Z,21.98
2022-08-26T01:55:49.353Z,21.81
2022-08-26T01:58:26.208Z,21.96
2022-08-26T02:00:54.181Z,21.91
2022-08-26T02:03:22.271Z,21.99
2022-08-26T02:05:53.589Z,22.10
2022-08-26T02:08:29.295Z,22.06
2022-08-26T02:10:56.509Z,22.04
2022-08-26T02:13:26.971Z,21.82
2022-08-26T02:15:55.685Z,21.90
2022-08-26T02:18:23.967Z,21.86
2022-08-26T02:20:54.540Z,21.92
2022-08-26T02:23:23.964Z,21.83
2022-08-26T02:26:08.447Z,21.79
2022-08-26T02:29:05.879Z,21.70
2022-08-26T02:31:35.094Z,21.67
2022-08-26T02:34:33.107Z,21.67
2022-08-26T02:37:05.093Z,21.58
2022-08-26T02:39:34.034Z,21.59
2022-08-26T02:42:01.579Z,21.56
2022-08-26T02:44:28.879Z,21.44
2022-08-26T02:47:02.342Z,21.35
2022-08-26T02:49:33.755Z,21.27
2022-08-26T02:52:01.902Z,21.32
2022-08-26T02:54:29.230Z,21.05
2022-08-26T02:56:56.309Z,21.23
2022-08-26T02:59:24.451Z,21.30
2022-08-26T03:01:52.623Z,21.39
2022-08-26T03:04:25.825Z,21.13
2022-08-26T03:06:55.382Z,21.18
2022-08-26T03:09:24.052Z,21.16
2022-08-26T03:11:52.368Z,21.13
2022-08-26T03:14:19.488Z,21.19
2022-08-26T03:16:48.449Z,21.17
2022-08-26T03:19:15.706Z,21.04
2022-08-26T03:21:45.191Z,20.83
2022-08-26T03:24:15.560Z,20.88
2022-08-26T03:26:51.914Z,21.10
2022-08-26T03:29:40.628Z,21.05
2022-08-26T03:32:08.634Z,20.75
2022-08-26T03:34:36.449Z,20.88
2022-08-26T03:37:03.624Z,20.87
2022-08-26T03:39:31.787Z,20.94
2022-08-26T03:41:59.931Z,20.98
2022-08-26T03:44:27.361Z,20.85
2022-08-26T03:47:20.086Z,20.82
2022-08-26T03:49:47.471Z,20.71
2022-08-26T03:52:19.764Z,20.84
2022-08-26T03:54:47.221Z,20.71
2022-08-26T03:57:14.319Z,20.75
2022-08-26T03:59:44.126Z,20.71
2022-08-26T04:02:11.944Z,20.74
2022-08-26T04:04:39.701Z,20.68
2022-08-26T04:07:07.367Z,20.61
2022-08-26T04:09:35.336Z,20.71
2022-08-26T04:12:03.844Z,20.44
2022-08-26T04:14:32.133Z,20.41
2022-08-26T04:16:59.372Z,20.28
2022-08-26T04:19:26.582Z,20.32
2022-08-26T04:21:54.439Z,20.05
2022-08-26T04:24:25.348Z,20.11
2022-08-26T04:26:52.533Z,20.04
2022-08-26T04:29:25.334Z,19.94
2022-08-26T04:31:57.198Z,19.89
2022-08-26T04:34:28.336Z,20.01
2022-08-26T04:36:58.260Z,20.26
2022-08-26T04:39:27.703Z,20.31
2022-08-26T04:41:55.554Z,20.39
2022-08-26T04:44:28.258Z,20.18
2022-08-26T04:46:58.667Z,20.10
2022-08-26T04:49:27.504Z,20.05
2022-08-26T04:51:55.053Z,20.18
2022-08-26T04:54:23.307Z,20.12
2022-08-26T04:56:52.556Z,20.20
2022-08-26T04:59:20.003Z,20.30
2022-08-26T05:01:52.165Z,20.41
2022-08-26T05:04:21.013Z,20.41
2022-08-26T05:06:49.031Z,20.39
2022-08-26T05:09:18.298Z,20.45
2022-08-26T05:11:48.471Z,20.37
2022-08-26T05:14:23.128Z,20.53
2022-08-26T05:16:51.609Z,20.40
2022-08-26T05:19:19.507Z,20.18
2022-08-26T05:21:48.741Z,20.25
2022-08-26T05:24:17.773Z,20.31
2022-08-26T05:26:46.741Z,20.46
2022-08-26T05:29:14.236Z,20.67
2022-08-26T05:31:41.982Z,20.59
2022-08-26T05:34:10.116Z,20.64
2022-08-26T05:36:37.903Z,20.68
2022-08-26T05:39:07.129Z,20.84
2022-08-26T05:41:38.586Z,21.01
2022-08-26T05:44:09.849Z,21.12
2022-08-26T05:46:38.350Z,21.15
2022-08-26T05:49:13.065Z,21.17
2022-08-26T05:51:46.296Z,21.24
2022-08-26T05:54:21.866Z,20.84
2022-08-26T05:56:51.844Z,20.84
2022-08-26T05:59:24.207Z,20.95
2022-08-26T06:01:54.637Z,21.09
2022-08-26T06:04:26.783Z,21.12
2022-08-26T06:06:55.577Z,21.30
2022-08-26T06:09:23.285Z,21.25
2022-08-26T06:11:50.974Z,21.52
2022-08-26T06:14:18.169Z,21.52
2022-08-26T06:16:45.973Z,21.66
2022-08-26T06:19:15.588Z,21.75
2022-08-26T06:21:54.036Z,21.83
2022-08-26T06:24:39.925Z,21.83
2022-08-26T06:27:09.991Z,21.80
2022-08-26T06:29:39.348Z,22.07
2022-08-26T06:32:06.947Z,22.15
2022-08-26T06:34:35.985Z,22.45
2022-08-26T06:37:03.636Z,22.65
2022-08-26T06:39:31.833Z,22.71
2022-08-26T06:42:01.155Z,22.44
2022-08-26T06:44:34.278Z,22.30
2022-08-26T06:47:01.770Z,22.14
2022-08-26T06:49:29.143Z,22.01
2022-08-26T06:51:59.966Z,22.53
2022-08-26T06:54:31.703Z,22.58
2022-08-26T06:56:59.789Z,22.76
2022-08-26T06:59:27.108Z,22.91
2022-08-26T07:01:55.039Z,23.02
2022-08-26T07:04:24.528Z,22.68
2022-08-26T07:06:53.543Z,23.07
2022-08-26T07:09:28.050Z,23.36
2022-08-26T07:11:59.117Z,23.11
2022-08-26T07:14:26.601Z,23.37
2022-08-26T07:16:54.997Z,23.62
2022-08-26T07:19:30.746Z,23.82
2022-08-26T07:22:02.287Z,24.24
2022-08-26T07:24:33.558Z,23.83
2022-08-26T07:27:08.948Z,23.94
2022-08-26T07:29:37.920Z,24.19
2022-08-26T07:32:06.518Z,23.77
2022-08-26T07:34:33.975Z,23.90
2022-08-26T07:37:01.260Z,24.43
2022-08-26T07:39:31.613Z,24.77
2022-08-26T07:42:07.231Z,24.81
2022-08-26T07:44:37.594Z,25.01
2022-08-26T07:47:24.254Z,25.42
2022-08-26T07:49:56.185Z,25.56
2022-08-26T07:52:27.218Z,26.02
2022-08-26T07:54:59.549Z,26.18
2022-08-26T07:57:28.909Z,26.43
2022-08-26T07:59:57.568Z,26.06
2022-08-26T08:02:26.726Z,26.32
2022-08-26T08:04:55.198Z,26.92
2022-08-26T08:07:25.834Z,26.52
2022-08-26T08:10:14.581Z,26.85
2022-08-26T08:12:43.222Z,27.34
2022-08-26T08:15:13.941Z,27.04
2022-08-26T08:17:43.501Z,27.64
2022-08-26T08:20:13.120Z,27.97
2022-08-26T08:22:45.211Z,28.48
2022-08-26T08:25:14.704Z,28.60
2022-08-26T08:27:45.194Z,28.84
2022-08-26T08:30:14.169Z,28.87
2022-08-26T08:32:43.503Z,28.80
2022-08-26T08:35:13.817Z,29.03
2022-08-26T08:37:41.770Z,29.03
2022-08-26T08:40:17.189Z,29.28
2022-08-26T08:42:58.594Z,29.48
2022-08-26T08:45:35.918Z,29.52
2022-08-26T08:48:27.895Z,29.21
2022-08-26T08:51:21.796Z,29.80
2022-08-26T08:53:54.939Z,30.06
2022-08-26T08:56:43.149Z,30.18
2022-08-26T08:59:20.877Z,29.78
2022-08-26T09:02:14.865Z,29.65
2022-08-26T09:05:17.275Z,29.99
2022-08-26T09:08:11.381Z,30.12
2022-08-26T09:10:41.333Z,30.55
2022-08-26T09:13:25.130Z,30.88
2022-08-26T09:16:27.842Z,30.23
2022-08-26T09:19:04.953Z,30.16
2022-08-26T09:21:33.306Z,30.15
2022-08-26T09:24:00.791Z,29.50
2022-08-26T09:26:45.845Z,30.17
2022-08-26T09:29:42.365Z,29.87
2022-08-26T09:32:19.331Z,30.10
2022-08-26T09:35:01.244Z,30.69
2022-08-26T09:37:39.812Z,31.26
2022-08-26T09:40:16.539Z,31.08
2022-08-26T09:42:44.958Z,31.27
2022-08-26T09:45:28.295Z,31.16
2022-08-26T09:47:57.019Z,30.95
2022-08-26T09:50:41.089Z,31.40
2022-08-26T09:53:28.576Z,30.81
2022-08-26T09:56:34.768Z,31.17
2022-08-26T09:59:03.133Z,31.82
2022-08-26T10:01:42.359Z,31.82
2022-08-26T10:04:26.594Z,31.11
2022-08-26T10:07:09.802Z,31.41
2022-08-26T10:09:43.047Z,31.60
2022-08-26T10:12:20.498Z,31.70
2022-08-26T10:15:02.023Z,31.17
2022-08-26T10:17:36.663Z,31.16
2022-08-26T10:20:23.379Z,30.69
2022-08-26T10:23:18.822Z,31.58
2022-08-26T10:25:59.210Z,31.84
2022-08-26T10:28:42.051Z,31.95
2022-08-26T10:31:28.237Z,32.23
2022-08-26T10:34:00.017Z,32.72
2022-08-26T10:40:01.655Z,32.27
2022-08-26T10:43:08.516Z,32.11
2022-08-26T10:45:48.031Z,32.37
2022-08-26T10:48:35.595Z,32.33
2022-08-26T10:51:04.228Z,32.52
2022-08-26T10:53:42.521Z,31.93
2022-08-26T10:56:49.615Z,32.30
2022-08-26T10:59:56.010Z,32.84
2022-08-26T11:02:48.220Z,33.52
2022-08-26T11:05:20.271Z,33.33
2022-08-26T11:07:54.822Z,33.17
2022-08-26T11:10:22.875Z,33.87
2022-08-26T11:13:06.766Z,34.00
2022-08-26T11:15:40.012Z,33.66
2022-08-26T11:18:10.938Z,33.97
2022-08-26T11:20:45.994Z,34.59
2022-08-26T11:23:23.411Z,34.98
2022-08-26T11:26:09.358Z,34.92
2022-08-26T11:28:49.856Z,34.81
2022-08-26T11:31:26.688Z,34.73
2022-08-26T11:33:59.483Z,34.75
2022-08-26T11:36:45.397Z,34.66
2022-08-26T11:39:30.604Z,34.64
2022-08-26T11:42:55.635Z,34.38
2022-08-26T11:46:19.481Z,34.30
2022-08-26T11:49:43.473Z,34.57
2022-08-26T11:52:25.435Z,35.02
2022-08-26T11:55:49.762Z,35.68
2022-08-26T11:58:17.404Z,35.92
2022-08-26T12:01:42.048Z,34.91
2022-08-26T12:04:17.858Z,36.01
2022-08-26T12:07:42.698Z,37.29
2022-08-26T12:10:11.155Z,38.14
2022-08-26T12:13:35.794Z,39.11
2022-08-26T12:16:06.153Z,40.16
2022-08-26T12:19:32.998Z,40.81
2022-08-26T12:22:56.857Z,42.20
2022-08-26T12:25:25.247Z,42.89
2022-08-26T12:28:49.011Z,43.61
2022-08-26T12:31:42.668Z,44.51
2022-08-26T12:34:18.039Z,45.08
2022-08-26T12:37:42.865Z,45.67
2022-08-26T12:40:30.269Z,45.87
2022-08-26T12:43:02.128Z,46.43
2022-08-26T12:45:43.812Z,44.26
2022-08-26T12:48:29.418Z,45.58
2022-08-26T12:50:58.121Z,44.69
2022-08-26T12:53:29.897Z,43.67
2022-08-26T12:56:04.762Z,42.84
2022-08-26T12:58:35.022Z,42.72
2022-08-26T13:01:05.979Z,44.08
2022-08-26T13:03:45.542Z,45.01
2022-08-26T13:06:22.242Z,45.49
2022-08-26T13:09:18.633Z,46.20
2022-08-26T13:11:45.730Z,46.38
2022-08-26T13:14:21.190Z,46.29
2022-08-26T13:16:52.747Z,46.39
2022-08-26T13:19:23.808Z,46.43
2022-08-26T13:21:55.341Z,46.91
2022-08-26T13:24:31.586Z,46.74
2022-08-26T13:26:59.340Z,45.26
2022-08-26T13:29:26.672Z,45.62
2022-08-26T13:31:54.252Z,44.28
2022-08-26T13:34:23.301Z,45.25
2022-08-26T13:36:54.068Z,45.90
2022-08-26T13:39:22.773Z,46.38
2022-08-26T13:41:50.089Z,45.18
2022-08-26T13:44:17.905Z,45.52
2022-08-26T13:49:18.072Z,42.38
2022-08-26T13:51:45.690Z,39.27
2022-08-26T13:54:13.134Z,38.64
2022-08-26T13:56:40.472Z,37.36
2022-08-26T13:59:07.614Z,37.14
2022-08-26T14:01:36.047Z,37.10
2022-08-26T14:04:03.730Z,36.93
2022-08-26T14:06:31.535Z,36.74
2022-08-26T14:08:58.763Z,36.65
2022-08-26T14:11:26.901Z,36.36
2022-08-26T14:13:54.027Z,36.36
2022-08-26T14:16:26.375Z,36.09
2022-08-26T14:18:54.018Z,35.95
2022-08-26T14:21:22.073Z,35.61
2022-08-26T14:23:49.273Z,35.31
2022-08-26T14:26:29.164Z,35.18
2022-08-26T14:28:59.410Z,34.90
2022-08-26T14:31:29.419Z,34.84
2022-08-26T14:34:01.555Z,34.66
2022-08-26T14:36:28.993Z,34.53
2022-08-26T14:39:00.748Z,34.36
2022-08-26T14:41:30.456Z,34.06
2022-08-26T14:44:06.162Z,34.05
2022-08-26T14:46:42.809Z,34.05
2022-08-26T14:49:10.860Z,33.76
2022-08-26T14:51:40.942Z,33.72
2022-08-26T14:54:13.448Z,33.31
2022-08-26T14:56:52.019Z,33.04
2022-08-26T14:59:30.730Z,32.96
2022-08-26T15:01:59.452Z,32.86
2022-08-26T15:04:27.238Z,32.79
2022-08-26T15:06:57.633Z,32.44
2022-08-26T15:09:26.917Z,32.39
2022-08-26T15:11:54.108Z,32.50
2022-08-26T15:14:23.102Z,32.71
2022-08-26T15:16:54.368Z,32.41
2022-08-26T15:19:23.255Z,32.13
2022-08-26T15:21:51.780Z,32.32
2022-08-26T15:24:22.720Z,32.24
2022-08-26T15:26:50.889Z,30.79
2022-08-26T15:29:18.667Z,31.21
2022-08-26T15:31:46.242Z,31.54
2022-08-26T15:34:16.819Z,31.64
2022-08-26T15:36:46.992Z,31.29
2022-08-26T15:39:17.051Z,31.26
2022-08-26T15:41:44.651Z,31.17
2022-08-26T15:44:13.978Z,30.85
2022-08-26T15:46:41.989Z,30.56
2022-08-26T15:49:09.574Z,30.37
2022-08-26T15:51:46.946Z,30.15
2022-08-26T15:54:17.263Z,30.35
2022-08-26T15:56:47.908Z,30.56
2022-08-26T15:59:16.005Z,30.72
2022-08-26T16:01:43.672Z,30.85
2022-08-26T16:04:11.425Z,30.85
2022-08-26T16:06:40.824Z,30.94
2022-08-26T16:09:08.489Z,30.90
2022-08-26T16:11:36.112Z,30.70
2022-08-26T16:14:04.620Z,30.48
2022-08-26T16:16:32.170Z,30.23
2022-08-26T16:19:01.278Z,30.11
2022-08-26T16:21:31.187Z,29.16
2022-08-26T16:23:59.018Z,28.30
2022-08-26T16:26:32.792Z,27.45
2022-08-26T16:29:10.327Z,26.82
2022-08-26T16:31:38.327Z,26.52
2022-08-26T16:34:07.764Z,25.45
2022-08-26T16:36:37.845Z,24.81
2022-08-26T16:39:07.137Z,24.00
2022-08-26T16:41:34.972Z,23.68
2022-08-26T16:44:03.158Z,23.26
2022-08-26T16:46:30.475Z,23.23
2022-08-26T16:48:59.228Z,23.08
2022-08-26T16:51:28.572Z,22.90
2022-08-26T16:53:57.700Z,23.02
2022-08-26T16:56:33.901Z,23.25
2022-08-26T16:59:07.985Z,23.02
2022-08-26T17:01:35.243Z,23.12
2022-08-26T17:04:02.622Z,23.27
2022-08-26T17:06:29.794Z,23.28
2022-08-26T17:08:56.897Z,23.48
2022-08-26T17:11:24.088Z,23.43
2022-08-26T17:13:51.515Z,23.47
2022-08-26T17:16:20.396Z,23.30
2022-08-26T17:18:48.436Z,22.95
2022-08-26T17:21:16.029Z,22.72
2022-08-26T17:23:43.859Z,22.72
2022-08-26T17:26:12.399Z,22.49
2022-08-26T17:28:40.677Z,22.45
2022-08-26T17:31:10.697Z,22.19
2022-08-26T17:33:39.219Z,22.10
2022-08-26T17:36:08.972Z,22.31
2022-08-26T17:38:38.040Z,22.24
2022-08-26T17:41:10.984Z,21.99
2022-08-26T17:43:39.243Z,22.19
2022-08-26T17:46:09.777Z,21.96
2022-08-26T17:48:39.227Z,21.81
2022-08-26T17:51:16.929Z,21.60
2022-08-26T17:53:44.923Z,21.66
2022-08-26T17:56:15.119Z,21.62
2022-08-26T17:58:48.046Z,21.18
2022-08-26T18:01:21.878Z,20.85
2022-08-26T18:03:49.866Z,20.62
2022-08-26T18:06:17.120Z,20.62
2022-08-26T18:08:44.898Z,20.36
2022-08-26T18:11:18.020Z,20.23
2022-08-26T18:13:47.435Z,20.22
2022-08-26T18:16:17.215Z,20.38
2022-08-26T18:18:44.880Z,20.36
2022-08-26T18:21:19.476Z,20.40
2022-08-26T18:23:47.820Z,19.97
2022-08-26T18:26:27.800Z,20.26
2022-08-26T18:28:55.466Z,20.17
2022-08-26T18:31:23.424Z,20.08
2022-08-26T18:33:50.781Z,20.23
2022-08-26T18:36:26.760Z,20.37
2022-08-26T18:38:54.552Z,20.59
2022-08-26T18:41:24.844Z,20.63
2022-08-26T18:43:53.340Z,20.69
2022-08-26T18:46:23.036Z,20.26
2022-08-26T18:48:51.412Z,20.34
2022-08-26T18:51:25.218Z,20.21
2022-08-26T18:53:52.829Z,20.47
2022-08-26T18:56:20.287Z,20.52
2022-08-26T18:58:48.669Z,20.55
2022-08-26T19:01:18.088Z,20.53
2022-08-26T19:03:46.568Z,20.61
2022-08-26T19:06:17.526Z,20.74
2022-08-26T19:08:45.301Z,20.91
2022-08-26T19:11:31.852Z,20.66
2022-08-26T19:14:07.984Z,20.92
2022-08-26T19:16:36.623Z,20.93
2022-08-26T19:19:03.984Z,21.02
2022-08-26T19:21:33.399Z,20.93
2022-08-26T19:24:03.734Z,21.08
2022-08-26T19:26:31.865Z,21.11
2022-08-26T19:29:00.254Z,21.19
2022-08-26T19:31:28.151Z,21.13
2022-08-26T19:33:56.643Z,21.17
2022-08-26T19:36:25.969Z,21.26
2022-08-26T19:38:54.015Z,21.21
2022-08-26T19:41:36.827Z,21.17
2022-08-26T19:44:13.160Z,20.99
2022-08-26T19:46:40.771Z,21.04
2022-08-26T19:49:07.875Z,20.95
2022-08-26T19:51:36.554Z,21.12
2022-08-26T19:54:04.787Z,21.27
2022-08-26T19:56:32.012Z,21.12
2022-08-26T19:58:59.349Z,21.18
2022-08-26T20:01:26.758Z,21.16
2022-08-26T20:06:21.222Z,21.21
2022-08-26T20:08:50.788Z,21.18
2022-08-26T20:11:19.559Z,21.00
2022-08-26T20:13:48.022Z,20.95
2022-08-26T20:16:16.286Z,20.91
2022-08-26T20:19:04.463Z,20.83
2022-08-26T20:21:38.087Z,20.88
2022-08-26T20:24:14.002Z,20.87
2022-08-26T20:26:43.471Z,20.89
2022-08-26T20:29:17.770Z,20.87
2022-08-26T20:31:47.004Z,20.91
2022-08-26T20:34:18.386Z,20.91
2022-08-26T20:36:48.128Z,20.76
2022-08-26T20:39:20.999Z,20.71
2022-08-26T20:41:48.937Z,20.71
2022-08-26T20:44:17.560Z,20.68
2022-08-26T20:46:45.342Z,20.65
2022-08-26T20:49:13.336Z,20.66
2022-08-26T20:51:45.500Z,20.59
2022-08-26T20:54:13.129Z,20.59
2022-08-26T20:56:40.329Z,20.64
2022-08-26T20:59:08.402Z,20.62
2022-08-26T21:01:42.318Z,20.63
2022-08-26T21:04:18.764Z,20.67
2022-08-26T21:06:52.087Z,20.84
2022-08-26T21:09:22.878Z,21.02
2022-08-26T21:11:50.684Z,21.00
2022-08-26T21:14:20.448Z,21.02
2022-08-26T21:16:47.760Z,21.07
2022-08-26T21:19:20.190Z,21.13
2022-08-26T21:21:49.680Z,21.16
2022-08-26T21:24:17.641Z,21.13
2022-08-26T21:26:45.810Z,21.17
2022-08-26T21:29:13.747Z,21.19
2022-08-26T21:31:45.766Z,21.18
2022-08-26T21:34:16.106Z,21.15
2022-08-26T21:36:44.416Z,21.12
2022-08-26T21:39:14.965Z,20.95
2022-08-26T21:41:44.229Z,21.12
2022-08-26T21:44:12.836Z,21.15
2022-08-26T21:46:40.956Z,21.13
2022-08-26T21:49:12.268Z,21.14
2022-08-26T21:51:45.470Z,21.18
2022-08-26T21:54:14.258Z,21.26
2022-08-26T21:56:46.018Z,21.26
2022-08-26T21:59:17.124Z,21.26
2022-08-26T22:01:44.383Z,21.24
2022-08-26T22:04:11.907Z,21.35
2022-08-26T22:06:46.548Z,21.38
2022-08-26T22:09:17.818Z,21.44
2022-08-26T22:11:46.283Z,21.38
2022-08-26T22:14:14.856Z,21.43
2022-08-26T22:16:42.152Z,21.51
2022-08-26T22:19:20.031Z,21.58
2022-08-26T22:21:50.019Z,21.57
2022-08-26T22:24:20.596Z,21.43
2022-08-26T22:26:49.674Z,21.48
2022-08-26T22:29:18.761Z,21.60
2022-08-26T22:31:46.270Z,21.61
2022-08-26T22:34:17.130Z,21.59
2022-08-26T22:36:48.283Z,21.63
2022-08-26T22:39:20.526Z,21.63
2022-08-26T22:41:48.818Z,21.75
2022-08-26T22:44:18.462Z,21.67
2022-08-26T22:46:46.985Z,21.62
2022-08-26T22:49:19.515Z,21.61
2022-08-26T22:51:46.901Z,21.66
2022-08-26T22:54:15.604Z,21.61
2022-08-26T22:56:45.001Z,21.56
2022-08-26T22:59:12.825Z,21.66
2022-08-26T23:01:44.048Z,21.73
2022-08-26T23:04:11.871Z,21.77
2022-08-26T23:06:43.197Z,21.80
2022-08-26T23:09:11.157Z,21.70
2022-08-26T23:11:42.173Z,21.81
2022-08-26T23:14:09.871Z,21.89
2022-08-26T23:16:41.605Z,21.98
2022-08-26T23:19:13.691Z,22.04
2022-08-26T23:21:41.249Z,22.03
2022-08-26T23:24:09.897Z,21.99
2022-08-26T23:26:39.169Z,21.95
2022-08-26T23:29:09.125Z,21.99
2022-08-26T23:31:39.600Z,21.92
2022-08-26T23:34:25.713Z,21.55
2022-08-26T23:36:53.219Z,21.61
2022-08-26T23:39:21.546Z,21.63
2022-08-26T23:41:48.836Z,21.36
2022-08-26T23:44:16.658Z,21.52
2022-08-26T23:46:44.036Z,21.60
2022-08-26T23:49:11.634Z,21.69
2022-08-26T23:52:03.506Z,21.74
2022-08-26T23:54:33.086Z,21.76
2022-08-26T23:57:00.505Z,21.85
2022-08-26T23:59:27.772Z,21.90
